createdAt,value
2019-04-01T00:01:46.189Z,7.80
2019-04-01T00:04:15.994Z,7.80
2019-04-01T00:06:46.126Z,7.80
2019-04-01T00:09:15.943Z,7.80
2019-04-01T00:11:45.762Z,7.70
2019-04-01T00:14:16.026Z,7.70
2019-04-01T00:16:45.841Z,7.60
2019-04-01T00:19:17.046Z,7.60
2019-04-01T00:21:47.174Z,7.50
2019-04-01T00:24:17.123Z,7.50
2019-04-01T00:26:47.401Z,7.50
2019-04-01T00:29:17.585Z,7.40
2019-04-01T00:31:48.151Z,7.40
2019-04-01T00:34:18.414Z,7.30
2019-04-01T00:36:56.548Z,7.30
2019-04-01T00:39:27.234Z,7.20
2019-04-01T00:42:03.223Z,7.20
2019-04-01T00:44:33.851Z,7.10
2019-04-01T00:47:03.651Z,7.10
2019-04-01T00:49:33.520Z,7.00
2019-04-01T00:52:03.881Z,7.00
2019-04-01T00:54:34.583Z,6.90
2019-04-01T00:57:04.407Z,6.90
2019-04-01T00:59:35.503Z,6.90
2019-04-01T01:02:05.450Z,6.80
2019-04-01T01:04:35.257Z,6.80
2019-04-01T01:07:05.161Z,6.80
2019-04-01T01:09:35.644Z,6.80
2019-04-01T01:12:05.971Z,6.80
2019-04-01T01:14:37.567Z,6.70
2019-04-01T01:17:07.859Z,6.70
2019-04-01T01:19:37.648Z,6.70
2019-04-01T01:22:07.975Z,6.80
2019-04-01T01:24:38.294Z,6.80
2019-04-01T01:27:08.727Z,6.70
2019-04-01T01:29:38.632Z,6.60
2019-04-01T01:32:08.526Z,6.60
2019-04-01T01:34:38.862Z,6.60
2019-04-01T01:37:09.285Z,6.60
2019-04-01T01:39:39.694Z,6.60
2019-04-01T01:42:09.536Z,6.50
2019-04-01T01:44:39.406Z,6.40
2019-04-01T01:47:09.172Z,6.40
2019-04-01T01:49:40.475Z,6.30
2019-04-01T01:52:10.320Z,6.30
2019-04-01T01:54:40.596Z,6.20
2019-04-01T01:57:10.887Z,6.20
2019-04-01T01:59:41.049Z,6.20
2019-04-01T02:02:10.962Z,6.10
2019-04-01T02:04:40.820Z,6.10
2019-04-01T02:07:10.949Z,6.10
2019-04-01T02:09:41.623Z,6.00
2019-04-01T02:12:11.503Z,6.00
2019-04-01T02:14:41.822Z,6.00
2019-04-01T02:17:12.076Z,6.00
2019-04-01T02:19:42.449Z,6.00
2019-04-01T02:22:12.294Z,5.90
2019-04-01T02:24:42.681Z,5.90
2019-04-01T02:27:13.035Z,5.90
2019-04-01T02:29:42.793Z,5.80
2019-04-01T02:32:12.624Z,5.80
2019-04-01T02:34:43.011Z,5.70
2019-04-01T02:37:13.248Z,5.70
2019-04-01T02:39:43.111Z,5.70
2019-04-01T02:42:13.039Z,5.70
2019-04-01T02:44:42.903Z,5.70
2019-04-01T02:47:13.265Z,5.60
2019-04-01T02:49:43.085Z,5.60
2019-04-01T02:52:12.960Z,5.60
2019-04-01T02:54:42.871Z,5.50
2019-04-01T02:57:12.785Z,5.50
2019-04-01T02:59:42.644Z,5.50
2019-04-01T03:02:12.501Z,5.50
2019-04-01T03:04:42.828Z,5.50
2019-04-01T03:07:13.002Z,5.40
2019-04-01T03:09:42.899Z,5.40
2019-04-01T03:12:12.775Z,5.30
2019-04-01T03:14:42.638Z,5.30
2019-04-01T03:17:12.448Z,5.30
2019-04-01T03:19:42.753Z,5.30
2019-04-01T03:22:13.678Z,5.30
2019-04-01T03:24:43.850Z,5.20
2019-04-01T03:27:17.306Z,5.20
2019-04-01T03:29:45.885Z,5.30
2019-04-01T03:32:15.738Z,5.20
2019-04-01T03:34:45.951Z,5.20
2019-04-01T03:37:15.852Z,5.20
2019-04-01T03:39:46.031Z,5.20
2019-04-01T03:42:15.970Z,5.10
2019-04-01T03:44:46.470Z,5.10
2019-04-01T03:47:16.672Z,5.10
2019-04-01T03:49:46.478Z,5.00
2019-04-01T03:52:16.698Z,5.00
2019-04-01T03:54:46.527Z,5.00
2019-04-01T03:57:16.789Z,5.00
2019-04-01T03:59:47.326Z,5.00
2019-04-01T04:02:17.112Z,4.90
2019-04-01T04:04:46.979Z,4.90
2019-04-01T04:07:16.972Z,4.90
2019-04-01T04:09:47.285Z,4.90
2019-04-01T04:12:17.363Z,4.80
2019-04-01T04:14:51.087Z,4.80
2019-04-01T04:17:19.397Z,4.80
2019-04-01T04:19:49.374Z,4.80
2019-04-01T04:22:19.960Z,4.80
2019-04-01T04:24:50.170Z,4.80
2019-04-01T04:27:20.116Z,4.70
2019-04-01T04:29:50.000Z,4.80
2019-04-01T04:32:20.257Z,4.70
2019-04-01T04:34:50.511Z,4.70
2019-04-01T04:37:20.402Z,4.70
2019-04-01T04:39:50.264Z,4.70
2019-04-01T04:42:20.580Z,4.60
2019-04-01T04:44:50.668Z,4.60
2019-04-01T04:47:20.836Z,4.60
2019-04-01T04:49:50.613Z,4.60
2019-04-01T04:52:20.487Z,4.60
2019-04-01T04:54:50.943Z,4.50
2019-04-01T04:57:20.828Z,4.50
2019-04-01T04:59:50.685Z,4.40
2019-04-01T05:02:24.411Z,4.50
2019-04-01T05:04:52.904Z,4.50
2019-04-01T05:07:22.745Z,4.40
2019-04-01T05:09:52.511Z,4.40
2019-04-01T05:12:22.338Z,4.50
2019-04-01T05:14:53.838Z,4.60
2019-04-01T05:17:24.100Z,4.60
2019-04-01T05:19:53.914Z,4.60
2019-04-01T05:22:25.212Z,4.50
2019-04-01T05:24:56.618Z,4.60
2019-04-01T05:27:29.085Z,4.60
2019-04-01T05:30:01.369Z,4.60
2019-04-01T05:32:33.188Z,4.60
2019-04-01T05:35:05.054Z,4.60
2019-04-01T05:37:36.497Z,4.60
2019-04-01T05:40:06.801Z,4.60
2019-04-01T05:42:37.684Z,4.70
2019-04-01T05:45:08.491Z,4.70
2019-04-01T05:47:45.685Z,4.70
2019-04-01T05:50:16.222Z,4.80
2019-04-01T05:52:46.284Z,4.90
2019-04-01T05:55:16.304Z,5.00
2019-04-01T05:57:46.815Z,5.00
2019-04-01T06:00:25.571Z,5.20
2019-04-01T06:02:55.874Z,5.30
2019-04-01T06:05:26.546Z,5.40
2019-04-01T06:07:56.516Z,5.60
2019-04-01T06:10:26.893Z,5.70
2019-04-01T06:12:57.638Z,6.00
2019-04-01T06:15:27.615Z,6.20
2019-04-01T06:17:58.111Z,6.40
2019-04-01T06:20:27.942Z,6.50
2019-04-01T06:22:58.370Z,6.70
2019-04-01T06:25:28.908Z,6.80
2019-04-01T06:27:58.884Z,6.90
2019-04-01T06:30:28.772Z,6.90
2019-04-01T06:32:58.754Z,7.10
2019-04-01T06:35:33.983Z,7.30
2019-04-01T06:38:03.887Z,7.50
2019-04-01T06:40:33.843Z,7.70
2019-04-01T06:43:04.300Z,7.60
2019-04-01T06:45:34.993Z,7.80
2019-04-01T06:48:05.129Z,8.00
2019-04-01T06:50:35.162Z,7.90
2019-04-01T06:53:05.207Z,8.20
2019-04-01T06:55:35.554Z,8.30
2019-04-01T06:58:05.612Z,8.20
2019-04-01T07:00:35.927Z,8.40
2019-04-01T07:03:06.295Z,8.60
2019-04-01T07:05:36.511Z,8.80
2019-04-01T07:08:06.494Z,8.90
2019-04-01T07:10:36.877Z,8.90
2019-04-01T07:13:06.741Z,8.90
2019-04-01T07:15:36.868Z,8.80
2019-04-01T07:18:06.849Z,8.70
2019-04-01T07:20:36.801Z,8.60
2019-04-01T07:23:06.763Z,8.80
2019-04-01T07:25:37.468Z,9.10
2019-04-01T07:28:08.823Z,9.30
2019-04-01T07:30:41.617Z,9.70
2019-04-01T07:33:10.351Z,9.90
2019-04-01T07:35:40.355Z,10.00
2019-04-01T07:38:11.794Z,9.90
2019-04-01T07:40:41.687Z,9.90
2019-04-01T07:43:14.712Z,9.70
2019-04-01T07:45:43.856Z,9.70
2019-04-01T07:48:13.692Z,9.70
2019-04-01T07:50:43.948Z,9.80
2019-04-01T07:53:13.842Z,9.90
2019-04-01T07:55:43.847Z,9.80
2019-04-01T07:58:13.718Z,9.70
2019-04-01T08:00:43.587Z,10.00
2019-04-01T08:03:13.491Z,9.90
2019-04-01T08:05:43.461Z,10.20
2019-04-01T08:08:13.335Z,10.20
2019-04-01T08:10:43.567Z,10.30
2019-04-01T08:13:13.433Z,10.40
2019-04-01T08:15:43.694Z,10.70
2019-04-01T08:18:14.075Z,10.90
2019-04-01T08:20:44.392Z,10.80
2019-04-01T08:23:14.485Z,10.60
2019-04-01T08:25:47.744Z,10.60
2019-04-01T08:28:16.623Z,10.70
2019-04-01T08:30:47.279Z,10.90
2019-04-01T08:33:17.361Z,11.30
2019-04-01T08:35:47.585Z,11.80
2019-04-01T08:38:17.743Z,11.90
2019-04-01T08:40:47.810Z,11.90
2019-04-01T08:43:21.940Z,11.60
2019-04-01T08:45:51.994Z,11.70
2019-04-01T08:48:22.128Z,11.70
2019-04-01T08:50:52.564Z,11.80
2019-04-01T08:53:22.440Z,12.00
2019-04-01T08:56:00.268Z,12.10
2019-04-01T08:58:24.875Z,11.80
2019-04-01T09:00:54.715Z,11.70
2019-04-01T09:03:25.122Z,12.00
2019-04-01T09:05:55.395Z,11.80
2019-04-01T09:08:26.917Z,12.00
2019-04-01T09:10:56.834Z,12.30
2019-04-01T09:13:27.556Z,12.40
2019-04-01T09:15:58.090Z,12.50
2019-04-01T09:18:28.335Z,13.00
2019-04-01T09:20:58.778Z,12.40
2019-04-01T09:23:28.815Z,12.20
2019-04-01T09:25:58.783Z,12.60
2019-04-01T09:28:29.053Z,12.80
2019-04-01T09:30:59.272Z,12.90
2019-04-01T09:33:29.600Z,12.80
2019-04-01T09:36:00.494Z,12.60
2019-04-01T09:38:30.778Z,12.60
2019-04-01T09:41:00.730Z,12.40
2019-04-01T09:43:30.643Z,12.50
2019-04-01T09:46:01.012Z,12.90
2019-04-01T09:48:30.847Z,12.90
2019-04-01T09:51:01.508Z,12.80
2019-04-01T09:53:31.364Z,12.60
2019-04-01T09:56:02.056Z,12.80
2019-04-01T09:58:32.520Z,13.10
2019-04-01T10:01:02.518Z,13.20
2019-04-01T10:03:32.825Z,13.40
2019-04-01T10:06:02.627Z,13.40
2019-04-01T10:08:42.193Z,13.20
2019-04-01T10:11:04.970Z,13.00
2019-04-01T10:13:35.287Z,12.90
2019-04-01T10:16:06.634Z,12.90
2019-04-01T10:18:36.421Z,12.70
2019-04-01T10:21:06.245Z,12.80
2019-04-01T10:23:36.202Z,13.00
2019-04-01T10:26:07.533Z,13.10
2019-04-01T10:28:37.385Z,12.90
2019-04-01T10:31:07.825Z,13.00
2019-04-01T10:33:38.083Z,13.00
2019-04-01T10:36:08.342Z,12.90
2019-04-01T10:38:38.540Z,12.80
2019-04-01T10:41:08.995Z,12.80
2019-04-01T10:43:39.667Z,12.60
2019-04-01T10:46:12.191Z,12.60
2019-04-01T10:48:41.842Z,12.70
2019-04-01T10:51:11.696Z,12.70
2019-04-01T10:53:42.200Z,13.00
2019-04-01T10:56:12.244Z,13.10
2019-04-01T10:58:42.581Z,13.20
2019-04-01T11:01:12.498Z,13.20
2019-04-01T11:03:42.761Z,13.10
2019-04-01T11:06:12.583Z,13.30
2019-04-01T11:08:42.441Z,13.40
2019-04-01T11:11:12.730Z,13.40
2019-04-01T11:13:43.005Z,13.10
2019-04-01T11:16:12.809Z,13.20
2019-04-01T11:18:42.693Z,13.40
2019-04-01T11:21:12.556Z,13.50
2019-04-01T11:23:43.210Z,13.60
2019-04-01T11:26:13.163Z,13.70
2019-04-01T11:28:43.806Z,13.80
2019-04-01T11:31:13.956Z,13.70
2019-04-01T11:33:44.286Z,13.70
2019-04-01T11:36:15.902Z,13.70
2019-04-01T11:38:45.830Z,13.80
2019-04-01T11:41:16.108Z,13.90
2019-04-01T11:43:46.282Z,13.80
2019-04-01T11:46:16.137Z,13.60
2019-04-01T11:48:45.919Z,13.70
2019-04-01T11:51:15.863Z,14.00
2019-04-01T11:53:45.695Z,14.20
2019-04-01T11:56:16.299Z,14.10
2019-04-01T11:58:46.464Z,14.30
2019-04-01T12:01:18.931Z,14.20
2019-04-01T12:03:49.047Z,14.20
2019-04-01T12:06:19.296Z,13.90
2019-04-01T12:08:49.098Z,13.90
2019-04-01T12:11:20.000Z,13.80
2019-04-01T12:13:50.127Z,13.80
2019-04-01T12:16:20.366Z,13.90
2019-04-01T12:18:50.566Z,14.00
2019-04-01T12:21:20.338Z,14.00
2019-04-01T12:23:50.147Z,14.10
2019-04-01T12:26:20.061Z,14.10
2019-04-01T12:28:50.272Z,14.00
2019-04-01T12:31:21.734Z,14.20
2019-04-01T12:33:52.400Z,14.30
2019-04-01T12:36:22.569Z,14.40
2019-04-01T12:38:53.802Z,14.40
2019-04-01T12:41:24.443Z,14.50
2019-04-01T12:43:54.574Z,14.50
2019-04-01T12:46:24.435Z,14.50
2019-04-01T12:48:54.653Z,14.40
2019-04-01T12:51:24.925Z,14.50
2019-04-01T12:53:54.748Z,14.60
2019-04-01T12:56:24.510Z,14.70
2019-04-01T12:58:55.275Z,14.20
2019-04-01T13:01:25.584Z,14.50
2019-04-01T13:03:55.459Z,14.50
2019-04-01T13:06:25.620Z,14.50
2019-04-01T13:08:55.540Z,14.60
2019-04-01T13:11:25.442Z,14.60
2019-04-01T13:13:55.298Z,14.40
2019-04-01T13:16:26.022Z,14.10
2019-04-01T13:18:55.899Z,14.20
2019-04-01T13:21:25.807Z,14.30
2019-04-01T13:23:55.990Z,14.40
2019-04-01T13:26:25.861Z,14.70
2019-04-01T13:28:55.736Z,14.70
2019-04-01T13:31:30.213Z,14.60
2019-04-01T13:33:57.473Z,14.70
2019-04-01T13:36:27.674Z,14.70
2019-04-01T13:38:58.119Z,14.80
2019-04-01T13:41:41.795Z,14.90
2019-04-01T13:44:00.341Z,15.00
2019-04-01T13:46:30.209Z,15.10
2019-04-01T13:49:04.214Z,15.10
2019-04-01T13:51:31.533Z,15.20
2019-04-01T13:54:08.484Z,14.90
2019-04-01T13:56:32.742Z,15.00
2019-04-01T13:59:03.293Z,15.10
2019-04-01T14:01:33.138Z,15.20
2019-04-01T14:04:02.969Z,15.20
2019-04-01T14:06:33.670Z,15.20
2019-04-01T14:09:05.131Z,14.90
2019-04-01T14:11:34.921Z,14.90
2019-04-01T14:14:05.124Z,15.00
2019-04-01T14:16:34.922Z,15.20
2019-04-01T14:19:04.751Z,15.30
2019-04-01T14:21:34.670Z,15.60
2019-04-01T14:24:04.628Z,15.80
2019-04-01T14:26:36.785Z,15.80
2019-04-01T14:29:07.029Z,15.40
2019-04-01T14:31:37.387Z,15.10
2019-04-01T14:34:13.138Z,14.90
2019-04-01T14:36:40.974Z,14.80
2019-04-01T14:39:11.170Z,14.80
2019-04-01T14:41:40.986Z,14.80
2019-04-01T14:44:10.808Z,14.90
2019-04-01T14:46:41.040Z,14.80
2019-04-01T14:49:11.250Z,14.90
2019-04-01T14:51:41.807Z,14.90
2019-04-01T14:54:12.858Z,14.80
2019-04-01T14:56:42.715Z,14.80
2019-04-01T14:59:12.443Z,14.70
2019-04-01T15:01:42.292Z,14.70
2019-04-01T15:04:12.080Z,14.70
2019-04-01T15:06:42.078Z,14.60
2019-04-01T15:09:12.134Z,14.60
2019-04-01T15:11:42.744Z,14.60
2019-04-01T15:14:13.459Z,14.60
2019-04-01T15:16:43.204Z,14.50
2019-04-01T15:19:20.729Z,14.50
2019-04-01T15:21:55.398Z,14.50
2019-04-01T15:24:25.223Z,14.50
2019-04-01T15:26:57.392Z,14.50
2019-04-01T15:29:29.249Z,14.50
2019-04-01T15:31:59.478Z,14.50
2019-04-01T15:34:29.446Z,14.50
2019-04-01T15:36:59.376Z,14.50
2019-04-01T15:39:29.239Z,14.60
2019-04-01T15:41:59.202Z,14.50
2019-04-01T15:44:29.481Z,14.40
2019-04-01T15:47:06.430Z,14.50
2019-04-01T15:49:36.877Z,14.50
2019-04-01T15:52:07.386Z,14.50
2019-04-01T15:54:37.758Z,14.50
2019-04-01T15:57:09.691Z,14.40
2019-04-01T15:59:41.544Z,14.40
2019-04-01T16:02:14.691Z,14.30
2019-04-01T16:04:49.682Z,14.30
2019-04-01T16:07:22.423Z,14.30
2019-04-01T16:09:52.607Z,14.30
2019-04-01T16:12:23.397Z,14.30
2019-04-01T16:15:03.001Z,14.30
2019-04-01T16:17:33.839Z,14.30
2019-04-01T16:20:25.935Z,14.20
2019-04-01T16:23:39.443Z,14.20
2019-04-01T16:26:17.845Z,14.20
2019-04-01T16:29:05.636Z,14.10
2019-04-01T16:31:36.177Z,14.00
2019-04-01T16:34:07.170Z,14.00
2019-04-01T16:36:43.633Z,14.10
2019-04-01T16:39:16.432Z,14.10
2019-04-01T16:41:50.578Z,14.10
2019-04-01T16:44:20.734Z,14.00
2019-04-01T16:46:52.196Z,14.00
2019-04-01T16:49:22.049Z,14.00
2019-04-01T16:51:51.846Z,13.90
2019-04-01T16:54:22.584Z,13.90
2019-04-01T16:56:52.414Z,13.90
2019-04-01T16:59:24.910Z,13.80
2019-04-01T17:01:59.623Z,13.80
2019-04-01T17:04:39.615Z,13.70
2019-04-01T17:07:12.172Z,13.60
2019-04-01T17:09:48.975Z,13.60
2019-04-01T17:12:19.380Z,13.70
2019-04-01T17:14:50.958Z,13.60
2019-04-01T17:17:27.321Z,13.50
2019-04-01T17:19:57.616Z,13.50
2019-04-01T17:22:29.034Z,13.40
2019-04-01T17:24:59.492Z,13.30
2019-04-01T17:27:54.750Z,13.30
2019-04-01T17:30:28.059Z,13.20
2019-04-01T17:32:58.361Z,13.20
2019-04-01T17:35:29.048Z,13.10
2019-04-01T17:38:04.985Z,13.00
2019-04-01T17:40:36.125Z,12.90
2019-04-01T17:43:09.333Z,12.80
2019-04-01T17:45:40.719Z,12.70
2019-04-01T17:48:29.415Z,12.70
2019-04-01T17:51:00.774Z,12.60
2019-04-01T17:53:31.842Z,12.50
2019-04-01T17:56:01.981Z,12.40
2019-04-01T17:58:31.746Z,12.40
2019-04-01T18:01:03.124Z,12.30
2019-04-01T18:03:39.593Z,12.30
2019-04-01T18:06:13.606Z,12.30
2019-04-01T18:08:54.552Z,12.10
2019-04-01T18:11:37.670Z,12.10
2019-04-01T18:14:21.530Z,12.00
2019-04-01T18:16:53.291Z,11.90
2019-04-01T18:19:27.181Z,11.90
2019-04-01T18:22:00.998Z,11.80
2019-04-01T18:24:40.297Z,11.80
2019-04-01T18:27:10.798Z,11.70
2019-04-01T18:29:51.081Z,11.60
2019-04-01T18:32:21.275Z,11.60
2019-04-01T18:34:52.853Z,11.60
2019-04-01T18:37:31.024Z,11.50
2019-04-01T18:40:07.296Z,11.50
2019-04-01T18:42:53.582Z,11.60
2019-04-01T18:45:35.370Z,11.60
2019-04-01T18:48:14.434Z,11.50
2019-04-01T18:50:45.456Z,11.40
2019-04-01T18:53:23.679Z,11.30
2019-04-01T18:55:54.291Z,11.20
2019-04-01T18:58:26.872Z,11.20
2019-04-01T19:01:04.810Z,11.30
2019-04-01T19:03:38.207Z,11.30
2019-04-01T19:06:16.949Z,11.40
2019-04-01T19:08:51.756Z,11.30
2019-04-01T19:11:22.066Z,11.30
2019-04-01T19:13:56.276Z,11.20
2019-04-01T19:16:26.353Z,11.20
2019-04-01T19:18:56.314Z,11.10
2019-04-01T19:21:26.451Z,11.10
2019-04-01T19:24:00.489Z,11.00
2019-04-01T19:26:47.603Z,11.00
2019-04-01T19:29:20.255Z,10.90
2019-04-01T19:32:20.665Z,10.80
2019-04-01T19:34:51.003Z,10.70
2019-04-01T19:37:33.867Z,10.60
2019-04-01T19:40:03.891Z,10.50
2019-04-01T19:42:49.169Z,10.50
2019-04-01T19:45:24.530Z,10.40
2019-04-01T19:47:57.242Z,10.40
2019-04-01T19:50:35.892Z,10.30
2019-04-01T19:53:06.116Z,10.30
2019-04-01T19:55:36.817Z,10.20
2019-04-01T19:58:07.652Z,10.20
2019-04-01T20:00:37.936Z,10.20
2019-04-01T20:03:13.450Z,10.20
2019-04-01T20:05:46.216Z,10.10
2019-04-01T20:08:31.045Z,10.00
2019-04-01T20:11:01.617Z,9.90
2019-04-01T20:13:42.853Z,9.90
2019-04-01T20:16:15.012Z,9.90
2019-04-01T20:18:56.813Z,9.80
2019-04-01T20:21:47.269Z,9.70
2019-04-01T20:24:31.883Z,9.70
2019-04-01T20:27:07.750Z,9.60
2019-04-01T20:29:37.780Z,9.50
2019-04-01T20:32:17.240Z,9.40
2019-04-01T20:35:05.819Z,9.30
2019-04-01T20:37:51.596Z,9.20
2019-04-01T20:40:25.916Z,9.10
2019-04-01T20:42:59.894Z,9.10
2019-04-01T20:45:34.599Z,9.00
2019-04-01T20:48:08.901Z,8.90
2019-04-01T20:50:40.982Z,8.90
2019-04-01T20:53:15.449Z,8.80
2019-04-01T20:55:49.655Z,8.70
2019-04-01T20:58:28.049Z,8.60
2019-04-01T21:01:03.888Z,8.50
2019-04-01T21:03:33.983Z,8.40
2019-04-01T21:06:16.416Z,8.30
2019-04-01T21:08:47.831Z,8.30
2019-04-01T21:11:21.654Z,8.20
2019-04-01T21:13:52.433Z,8.10
2019-04-01T21:16:23.049Z,8.00
2019-04-01T21:19:09.592Z,8.00
2019-04-01T21:21:40.296Z,7.90
2019-04-01T21:24:14.414Z,7.80
2019-04-01T21:26:46.194Z,7.80
2019-04-01T21:29:17.234Z,7.70
2019-04-01T21:31:48.128Z,7.70
2019-04-01T21:34:20.221Z,7.70
2019-04-01T21:36:54.868Z,7.60
2019-04-01T21:39:33.625Z,7.50
2019-04-01T21:42:03.557Z,7.40
2019-04-01T21:44:33.597Z,7.40
2019-04-01T21:47:04.123Z,7.30
2019-04-01T21:49:34.744Z,7.30
2019-04-01T21:52:05.099Z,7.20
2019-04-01T21:54:36.977Z,7.20
2019-04-01T21:57:07.307Z,7.20
2019-04-01T21:59:37.616Z,7.10
2019-04-01T22:02:08.695Z,7.10
2019-04-01T22:04:39.022Z,7.10
2019-04-01T22:07:09.191Z,7.10
2019-04-01T22:09:40.172Z,7.10
2019-04-01T22:12:12.268Z,7.10
2019-04-01T22:14:42.734Z,7.10
2019-04-01T22:17:12.590Z,7.10
2019-04-01T22:19:42.515Z,7.10
2019-04-01T22:22:12.987Z,7.10
2019-04-01T22:24:44.387Z,7.10
2019-04-01T22:27:14.619Z,7.10
2019-04-01T22:29:44.451Z,7.10
2019-04-01T22:32:15.002Z,7.20
2019-04-01T22:34:44.932Z,7.10
2019-04-01T22:37:26.378Z,7.10
2019-04-01T22:39:47.239Z,7.00
2019-04-01T22:42:17.705Z,7.00
2019-04-01T22:44:47.639Z,7.00
2019-04-01T22:47:17.835Z,7.00
2019-04-01T22:49:48.796Z,7.00
2019-04-01T22:52:18.758Z,6.90
2019-04-01T22:54:48.658Z,6.80
2019-04-01T22:57:19.022Z,6.80
2019-04-01T22:59:49.171Z,6.70
2019-04-01T23:02:19.190Z,6.70
2019-04-01T23:04:49.066Z,6.60
2019-04-01T23:07:19.067Z,6.60
2019-04-01T23:09:48.866Z,6.60
2019-04-01T23:12:18.836Z,6.50
2019-04-01T23:14:49.364Z,6.40
2019-04-01T23:17:19.415Z,6.40
2019-04-01T23:19:49.741Z,6.30
2019-04-01T23:22:20.245Z,6.30
2019-04-01T23:24:50.097Z,6.20
2019-04-01T23:27:19.978Z,6.20
2019-04-01T23:29:51.092Z,6.20
2019-04-01T23:32:21.978Z,6.10
2019-04-01T23:34:51.787Z,6.10
2019-04-01T23:37:21.564Z,6.10
2019-04-01T23:39:51.916Z,6.00
2019-04-01T23:42:22.289Z,6.10
2019-04-01T23:44:52.741Z,6.00
2019-04-01T23:47:22.966Z,6.00
2019-04-01T23:49:53.154Z,6.00
2019-04-01T23:52:23.054Z,5.90
2019-04-01T23:54:53.065Z,5.80
2019-04-01T23:57:22.934Z,5.80
2019-04-01T23:59:53.081Z,5.70
